createdAt,value
2023-04-08T00:01:02.764Z,6.90
2023-04-08T00:03:30.740Z,6.77
2023-04-08T00:05:58.756Z,7.20
2023-04-08T00:08:26.482Z,6.93
2023-04-08T00:10:54.296Z,6.63
2023-04-08T00:13:22.132Z,6.27
2023-04-08T00:15:49.895Z,6.73
2023-04-08T00:18:19.070Z,7.17
2023-04-08T00:20:46.889Z,6.70
2023-04-08T00:23:14.581Z,6.60
2023-04-08T00:25:42.442Z,6.87
2023-04-08T00:28:10.382Z,7.07
2023-04-08T00:30:38.301Z,6.10
2023-04-08T00:33:06.112Z,5.83
2023-04-08T00:35:35.383Z,5.77
2023-04-08T00:38:03.413Z,5.77
2023-04-08T00:40:31.147Z,6.47
2023-04-08T00:42:58.934Z,6.60
2023-04-08T00:45:27.206Z,6.77
2023-04-08T00:47:54.969Z,6.63
2023-04-08T00:50:22.788Z,6.73
2023-04-08T00:52:51.964Z,6.37
2023-04-08T00:55:19.796Z,6.17
2023-04-08T00:57:47.733Z,6.50
2023-04-08T01:00:16.692Z,6.03
2023-04-08T01:02:49.653Z,6.97
2023-04-08T01:05:26.780Z,6.10
2023-04-08T01:07:56.485Z,6.53
2023-04-08T01:10:28.452Z,6.53
2023-04-08T01:12:58.210Z,6.63
2023-04-08T01:15:27.511Z,6.90
2023-04-08T01:17:56.673Z,6.50
2023-04-08T01:20:26.028Z,6.10
2023-04-08T01:23:05.091Z,6.10
2023-04-08T01:25:33.988Z,6.60
2023-04-08T01:28:05.863Z,6.13
2023-04-08T01:30:34.893Z,6.40
2023-04-08T01:33:03.640Z,6.73
2023-04-08T01:35:32.166Z,6.20
2023-04-08T01:38:00.661Z,5.50
2023-04-08T01:40:28.560Z,5.23
2023-04-08T01:42:57.720Z,6.53
2023-04-08T01:45:27.762Z,5.40
2023-04-08T01:47:56.606Z,5.67
2023-04-08T01:50:25.127Z,5.53
2023-04-08T01:52:53.858Z,6.47
2023-04-08T01:55:22.215Z,5.83
2023-04-08T01:57:52.107Z,6.10
2023-04-08T02:00:22.305Z,6.17
2023-04-08T02:02:52.056Z,5.43
2023-04-08T02:05:20.129Z,6.07
2023-04-08T02:07:48.517Z,5.47
2023-04-08T02:10:16.800Z,5.27
2023-04-08T02:12:45.431Z,5.77
2023-04-08T02:15:14.067Z,5.60
2023-04-08T02:17:46.135Z,5.43
2023-04-08T02:20:20.104Z,5.53
2023-04-08T02:22:50.787Z,5.33
2023-04-08T02:25:24.578Z,6.13
2023-04-08T02:27:53.580Z,5.43
2023-04-08T02:30:21.501Z,5.30
2023-04-08T02:32:49.486Z,5.53
2023-04-08T02:35:19.336Z,5.63
2023-04-08T02:37:48.706Z,6.27
2023-04-08T02:40:26.955Z,5.70
2023-04-08T02:42:54.883Z,5.60
2023-04-08T02:45:23.096Z,6.00
2023-04-08T02:47:50.993Z,6.37
2023-04-08T02:50:20.070Z,5.77
2023-04-08T02:52:47.776Z,6.73
2023-04-08T02:55:15.421Z,5.70
2023-04-08T02:57:43.975Z,5.33
2023-04-08T03:00:13.073Z,5.50
2023-04-08T03:02:41.227Z,6.37
2023-04-08T03:05:10.183Z,6.63
2023-04-08T03:07:39.610Z,6.53
2023-04-08T03:10:08.829Z,7.00
2023-04-08T03:12:36.595Z,7.03
2023-04-08T03:15:04.528Z,7.63
2023-04-08T03:17:33.846Z,6.73
2023-04-08T03:20:01.901Z,6.87
2023-04-08T03:22:29.675Z,6.70
2023-04-08T03:24:58.765Z,7.63
2023-04-08T03:27:26.767Z,7.23
2023-04-08T03:29:54.541Z,7.53
2023-04-08T03:32:22.301Z,7.40
2023-04-08T03:34:51.335Z,8.30
2023-04-08T03:37:19.203Z,8.17
2023-04-08T03:39:47.183Z,9.10
2023-04-08T03:42:16.288Z,8.13
2023-04-08T03:44:44.072Z,8.90
2023-04-08T03:47:11.850Z,7.83
2023-04-08T03:49:39.625Z,8.10
2023-04-08T03:52:07.539Z,9.10
2023-04-08T03:54:35.252Z,9.30
2023-04-08T03:57:03.081Z,9.30
2023-04-08T03:59:33.900Z,8.03
2023-04-08T04:02:01.654Z,9.50
2023-04-08T04:04:29.504Z,9.57
2023-04-08T04:06:57.282Z,10.30
2023-04-08T04:09:24.974Z,10.20
2023-04-08T04:11:52.692Z,8.70
2023-04-08T04:14:20.414Z,10.77
2023-04-08T04:16:49.475Z,10.40
2023-04-08T04:19:17.822Z,9.50
2023-04-08T04:21:45.595Z,10.67
2023-04-08T04:24:13.527Z,10.63
2023-04-08T04:26:41.822Z,9.03
2023-04-08T04:29:09.639Z,11.33
2023-04-08T04:31:37.386Z,10.10
2023-04-08T04:34:06.768Z,10.53
2023-04-08T04:36:34.568Z,12.17
2023-04-08T04:39:02.321Z,10.73
2023-04-08T04:41:29.964Z,11.20
2023-04-08T04:43:57.688Z,10.80
2023-04-08T04:46:25.421Z,11.60
2023-04-08T04:48:53.311Z,12.03
2023-04-08T04:51:22.347Z,12.73
2023-04-08T04:53:50.581Z,11.30
2023-04-08T04:56:18.253Z,12.37
2023-04-08T04:58:46.013Z,12.00
2023-04-08T05:01:13.878Z,12.33
2023-04-08T05:03:41.748Z,12.87
2023-04-08T05:06:09.471Z,12.20
2023-04-08T05:08:38.522Z,12.20
2023-04-08T05:11:10.466Z,13.00
2023-04-08T05:13:38.188Z,12.50
2023-04-08T05:16:06.297Z,13.93
2023-04-08T05:18:34.049Z,12.33
2023-04-08T05:21:01.811Z,12.20
2023-04-08T05:23:29.588Z,13.83
2023-04-08T05:25:58.676Z,12.60
2023-04-08T05:28:26.390Z,13.77
2023-04-08T05:30:54.595Z,14.87
2023-04-08T05:33:22.491Z,13.13
2023-04-08T05:35:50.416Z,12.57
2023-04-08T05:38:18.201Z,13.40
2023-04-08T05:40:45.920Z,13.03
2023-04-08T05:43:15.020Z,14.93
2023-04-08T05:45:42.765Z,14.33
2023-04-08T05:48:10.520Z,14.90
2023-04-08T05:50:38.255Z,12.80
2023-04-08T05:53:06.081Z,15.10
2023-04-08T05:55:33.849Z,14.93
2023-04-08T05:58:01.606Z,14.20
2023-04-08T06:00:30.782Z,14.43
2023-04-08T06:02:58.742Z,15.00
2023-04-08T06:05:26.847Z,15.03
2023-04-08T06:07:54.540Z,13.87
2023-04-08T06:10:22.222Z,14.43
2023-04-08T06:12:49.924Z,16.23
2023-04-08T06:15:17.729Z,14.57
2023-04-08T06:17:46.853Z,15.10
2023-04-08T06:20:14.599Z,15.33
2023-04-08T06:22:42.313Z,13.83
2023-04-08T06:25:10.394Z,14.57
2023-04-08T06:27:38.085Z,14.43
2023-04-08T06:30:06.521Z,14.23
2023-04-08T06:32:34.271Z,14.70
2023-04-08T06:35:03.551Z,15.10
2023-04-08T06:37:31.297Z,15.50
2023-04-08T06:39:59.035Z,15.43
2023-04-08T06:42:27.289Z,14.07
2023-04-08T06:44:55.022Z,14.63
2023-04-08T06:47:22.754Z,14.60
2023-04-08T06:49:50.488Z,13.50
2023-04-08T06:52:19.621Z,13.97
2023-04-08T06:54:47.456Z,11.07
2023-04-08T06:58:19.019Z,14.03
2023-04-08T07:00:47.191Z,15.20
2023-04-08T07:03:14.962Z,14.17
2023-04-08T07:05:43.006Z,16.53
2023-04-08T07:08:10.672Z,15.37
2023-04-08T07:10:38.385Z,15.23
2023-04-08T07:13:06.083Z,14.63
2023-04-08T07:15:35.232Z,14.83
2023-04-08T07:18:04.701Z,15.53
2023-04-08T07:20:32.504Z,14.80
2023-04-08T07:23:00.359Z,15.33
2023-04-08T07:25:28.070Z,16.00
2023-04-08T07:27:56.321Z,15.90
2023-04-08T07:30:24.580Z,13.57
2023-04-08T07:32:56.249Z,13.47
2023-04-08T07:35:26.052Z,16.07
2023-04-08T07:37:55.017Z,16.27
2023-04-08T07:40:22.705Z,16.53
2023-04-08T07:42:50.447Z,16.57
2023-04-08T07:45:18.180Z,18.17
2023-04-08T07:47:46.120Z,16.27
2023-04-08T07:50:15.505Z,16.03
2023-04-08T07:52:43.172Z,16.17
2023-04-08T07:55:11.260Z,15.60
2023-04-08T07:57:39.086Z,16.47
2023-04-08T08:00:08.459Z,17.40
2023-04-08T08:02:36.165Z,16.07
2023-04-08T08:05:04.065Z,16.73
2023-04-08T08:07:33.114Z,16.13
2023-04-08T08:10:00.791Z,16.50
2023-04-08T08:12:28.448Z,16.47
2023-04-08T08:14:59.068Z,17.27
2023-04-08T08:17:30.038Z,18.00
2023-04-08T08:19:57.846Z,16.87
2023-04-08T08:22:25.565Z,17.57
2023-04-08T08:24:58.034Z,18.50
2023-04-08T08:27:25.913Z,17.37
2023-04-08T08:29:53.706Z,17.33
2023-04-08T08:32:21.415Z,19.63
2023-04-08T08:34:49.165Z,18.53
2023-04-08T08:37:16.870Z,18.73
2023-04-08T08:39:44.577Z,15.23
2023-04-08T08:42:22.301Z,19.10
2023-04-08T08:44:50.469Z,18.60
2023-04-08T08:47:18.891Z,19.03
2023-04-08T08:49:46.743Z,18.57
2023-04-08T08:52:17.765Z,17.03
2023-04-08T08:54:46.040Z,14.63
2023-04-08T08:57:21.316Z,16.73
2023-04-08T08:59:49.047Z,15.70
2023-04-08T09:02:28.053Z,16.03
2023-04-08T09:05:00.603Z,17.63
2023-04-08T09:07:29.255Z,16.77
2023-04-08T09:09:58.426Z,16.40
2023-04-08T09:12:28.452Z,18.00
2023-04-08T09:15:07.210Z,14.57
2023-04-08T09:17:36.072Z,17.37
2023-04-08T09:20:11.507Z,15.47
2023-04-08T09:22:59.248Z,14.23
2023-04-08T09:25:27.879Z,14.33
2023-04-08T09:27:57.046Z,12.53
2023-04-08T09:30:26.421Z,17.40
2023-04-08T09:32:56.078Z,14.53
2023-04-08T09:35:24.824Z,18.27
2023-04-08T09:37:52.890Z,17.80
2023-04-08T09:40:20.614Z,14.77
2023-04-08T09:42:51.186Z,15.93
2023-04-08T09:45:20.467Z,18.73
2023-04-08T09:47:58.156Z,18.37
2023-04-08T09:50:28.811Z,17.07
2023-04-08T09:53:02.296Z,19.33
2023-04-08T09:55:32.944Z,17.60
2023-04-08T09:58:04.184Z,18.53
2023-04-08T10:00:34.852Z,19.43
2023-04-08T10:03:08.471Z,18.30
2023-04-08T10:05:38.813Z,18.27
2023-04-08T10:08:07.319Z,16.17
2023-04-08T10:10:35.822Z,17.23
2023-04-08T10:13:04.021Z,16.87
2023-04-08T10:15:33.946Z,18.17
2023-04-08T10:18:33.938Z,14.97
2023-04-08T10:21:02.434Z,14.57
2023-04-08T10:23:54.784Z,13.83
2023-04-08T10:26:33.621Z,16.27
2023-04-08T10:29:32.810Z,15.33
2023-04-08T10:32:02.827Z,15.53
2023-04-08T10:34:30.777Z,15.53
2023-04-08T10:37:02.238Z,16.77
2023-04-08T10:39:29.988Z,16.37
2023-04-08T10:41:57.748Z,14.20
2023-04-08T10:44:26.726Z,14.40
2023-04-08T10:46:55.759Z,13.97
2023-04-08T10:49:33.821Z,14.97
2023-04-08T10:52:01.967Z,14.87
2023-04-08T10:54:29.737Z,12.47
2023-04-08T10:56:57.490Z,11.87
2023-04-08T10:59:32.866Z,13.03
2023-04-08T11:02:01.525Z,12.33
2023-04-08T11:04:30.911Z,11.73
2023-04-08T11:06:59.150Z,10.73
2023-04-08T11:09:27.495Z,12.00
2023-04-08T11:11:56.622Z,12.40
2023-04-08T11:14:25.093Z,12.07
2023-04-08T11:16:53.257Z,11.50
2023-04-08T11:19:21.495Z,12.30
2023-04-08T11:21:52.736Z,12.50
2023-04-08T11:24:22.347Z,11.90
2023-04-08T11:26:50.304Z,12.80
2023-04-08T11:29:18.162Z,11.90
2023-04-08T11:31:47.266Z,11.73
2023-04-08T11:34:23.418Z,12.87
2023-04-08T11:36:52.576Z,11.57
2023-04-08T11:39:24.097Z,11.53
2023-04-08T11:41:51.901Z,10.63
2023-04-08T11:44:19.716Z,10.97
2023-04-08T11:46:55.314Z,12.47
2023-04-08T11:49:23.127Z,11.00
2023-04-08T11:51:59.232Z,11.97
2023-04-08T11:54:27.615Z,12.10
2023-04-08T11:56:56.095Z,12.07
2023-04-08T11:59:23.789Z,10.10
2023-04-08T12:01:52.853Z,11.50
2023-04-08T12:04:20.777Z,11.77
2023-04-08T12:06:48.524Z,10.43
2023-04-08T12:09:17.630Z,11.13
2023-04-08T12:11:45.482Z,10.77
2023-04-08T12:14:13.272Z,11.73
2023-04-08T12:16:41.413Z,11.20
2023-04-08T12:19:09.108Z,11.53
2023-04-08T12:21:36.905Z,10.70
2023-04-08T12:24:04.687Z,11.60
2023-04-08T12:26:33.862Z,10.53
2023-04-08T12:29:01.636Z,11.37
2023-04-08T12:31:29.418Z,11.07
2023-04-08T12:33:57.120Z,12.40
2023-04-08T12:36:25.019Z,11.37
2023-04-08T12:38:52.979Z,12.10
2023-04-08T12:41:20.775Z,11.33
2023-04-08T12:43:49.756Z,11.07
2023-04-08T12:46:17.649Z,9.80
2023-04-08T12:51:15.109Z,24.63
2023-04-08T12:53:42.998Z,22.37
2023-04-08T12:56:10.944Z,10.07
2023-04-08T12:58:38.724Z,11.13
2023-04-08T13:01:08.014Z,10.20
2023-04-08T13:03:36.284Z,10.83
2023-04-08T13:06:04.301Z,10.77
2023-04-08T13:08:32.014Z,10.67
2023-04-08T13:10:59.712Z,12.17
2023-04-08T13:13:27.557Z,11.00
2023-04-08T13:15:55.278Z,12.27
2023-04-08T13:18:24.329Z,17.37
2023-04-08T13:20:52.102Z,11.73
2023-04-08T13:23:19.928Z,11.10
2023-04-08T13:25:47.645Z,13.63
2023-04-08T13:28:15.635Z,12.87
2023-04-08T13:30:43.522Z,12.87
2023-04-08T13:33:11.293Z,13.10
2023-04-08T13:35:40.631Z,13.83
2023-04-08T13:38:08.592Z,13.30
2023-04-08T13:40:36.326Z,12.13
2023-04-08T13:43:04.058Z,11.00
2023-04-08T13:45:31.980Z,12.53
2023-04-08T13:47:59.793Z,12.63
2023-04-08T13:50:28.040Z,13.17
2023-04-08T13:52:57.291Z,13.60
2023-04-08T13:55:25.034Z,13.13
2023-04-08T13:57:52.816Z,13.00
2023-04-08T14:00:20.887Z,13.53
2023-04-08T14:02:48.714Z,12.70
2023-04-08T14:05:16.672Z,14.30
2023-04-08T14:07:44.322Z,13.00
2023-04-08T14:10:14.600Z,13.63
2023-04-08T14:12:42.368Z,13.33
2023-04-08T14:15:11.041Z,13.60
2023-04-08T14:17:38.897Z,11.97
2023-04-08T14:20:08.082Z,13.33
2023-04-08T14:22:35.829Z,14.73
2023-04-08T14:25:03.669Z,13.90
2023-04-08T14:27:32.990Z,16.93
2023-04-08T14:30:01.867Z,14.00
2023-04-08T14:32:29.561Z,14.90
2023-04-08T14:34:57.727Z,13.40
2023-04-08T14:37:25.552Z,12.57
2023-04-08T14:39:53.308Z,12.27
2023-04-08T14:42:22.473Z,13.47
2023-04-08T14:44:51.766Z,12.57
2023-04-08T14:47:19.433Z,13.90
2023-04-08T14:49:47.926Z,14.00
2023-04-08T14:52:15.954Z,13.13
2023-04-08T14:54:45.145Z,13.23
2023-04-08T14:57:13.166Z,13.43
2023-04-08T14:59:40.896Z,15.03
2023-04-08T15:02:10.048Z,13.97
2023-04-08T15:04:37.814Z,13.97
2023-04-08T15:07:06.301Z,14.97
2023-04-08T15:09:34.095Z,14.03
2023-04-08T15:12:02.639Z,19.43
2023-04-08T15:14:30.353Z,15.10
2023-04-08T15:16:58.122Z,15.17
2023-04-08T15:19:27.196Z,16.30
2023-04-08T15:21:54.863Z,15.90
2023-04-08T15:24:22.830Z,16.50
2023-04-08T15:26:50.511Z,14.13
2023-04-08T15:29:18.171Z,15.90
2023-04-08T15:31:45.866Z,16.73
2023-04-08T15:34:13.595Z,17.50
2023-04-08T15:36:42.704Z,17.10
2023-04-08T15:39:10.793Z,17.03
2023-04-08T15:41:38.898Z,16.00
2023-04-08T15:44:06.602Z,16.10
2023-04-08T15:46:36.802Z,16.43
2023-04-08T15:49:05.269Z,16.20
2023-04-08T15:51:33.421Z,17.50
2023-04-08T15:54:02.811Z,14.90
2023-04-08T15:56:30.558Z,16.00
2023-04-08T15:58:58.432Z,16.03
2023-04-08T16:01:26.242Z,15.97
2023-04-08T16:03:54.056Z,16.53
2023-04-08T16:06:21.838Z,16.37
2023-04-08T16:08:50.360Z,16.93
2023-04-08T16:11:19.610Z,17.93
2023-04-08T16:13:47.301Z,15.87
2023-04-08T16:16:15.070Z,17.07
2023-04-08T16:18:46.008Z,20.23
2023-04-08T16:21:14.565Z,22.53
2023-04-08T16:23:42.264Z,19.80
2023-04-08T16:26:09.992Z,19.30
2023-04-08T16:28:39.907Z,20.83
2023-04-08T16:31:07.940Z,21.27
2023-04-08T16:33:35.923Z,18.43
2023-04-08T16:36:04.283Z,18.40
2023-04-08T16:38:33.078Z,19.67
2023-04-08T16:41:01.154Z,20.60
2023-04-08T16:43:29.401Z,19.83
2023-04-08T16:45:58.462Z,21.60
2023-04-08T16:48:26.249Z,26.83
2023-04-08T16:50:53.967Z,19.90
2023-04-08T16:53:21.650Z,19.57
2023-04-08T16:55:49.322Z,21.43
2023-04-08T16:58:17.120Z,20.03
2023-04-08T17:00:44.792Z,22.10
2023-04-08T17:03:13.859Z,21.97
2023-04-08T17:05:41.806Z,22.83
2023-04-08T17:08:09.558Z,21.00
2023-04-08T17:10:37.433Z,23.43
2023-04-08T17:13:05.659Z,23.80
2023-04-08T17:15:36.092Z,24.37
2023-04-08T17:18:03.858Z,23.73
2023-04-08T17:20:32.976Z,26.57
2023-04-08T17:23:00.719Z,25.10
2023-04-08T17:25:28.434Z,25.60
2023-04-08T17:27:56.732Z,26.47
2023-04-08T17:30:24.595Z,28.37
2023-04-08T17:32:52.766Z,24.43
2023-04-08T17:35:20.616Z,26.83
2023-04-08T17:37:50.269Z,23.93
2023-04-08T17:40:18.431Z,25.57
2023-04-08T17:42:46.654Z,23.97
2023-04-08T17:45:14.588Z,25.77
2023-04-08T17:47:43.290Z,24.70
2023-04-08T17:50:11.919Z,28.40
2023-04-08T17:52:39.777Z,26.50
2023-04-08T17:55:10.128Z,26.57
2023-04-08T17:57:38.975Z,25.60
2023-04-08T18:00:08.156Z,24.13
2023-04-08T18:02:36.961Z,26.40
2023-04-08T18:05:06.547Z,25.30
2023-04-08T18:07:34.426Z,25.03
2023-04-08T18:10:02.411Z,25.40
2023-04-08T18:12:31.783Z,25.87
2023-04-08T18:14:59.984Z,25.83
2023-04-08T18:17:27.695Z,27.53
2023-04-08T18:19:55.374Z,28.00
2023-04-08T18:22:23.035Z,31.33
2023-04-08T18:24:50.712Z,33.03
2023-04-08T18:27:18.399Z,31.17
2023-04-08T18:29:47.420Z,31.77
2023-04-08T18:32:15.152Z,29.83
2023-04-08T18:34:42.784Z,30.33
2023-04-08T18:37:10.998Z,27.80
2023-04-08T18:39:41.032Z,26.73
2023-04-08T18:42:08.765Z,29.90
2023-04-08T18:44:36.537Z,31.10
2023-04-08T18:47:05.749Z,30.00
2023-04-08T18:49:34.115Z,33.43
2023-04-08T18:52:03.415Z,30.53
2023-04-08T18:54:31.547Z,34.80
2023-04-08T18:56:59.479Z,37.07
2023-04-08T18:59:28.765Z,39.40
2023-04-08T19:01:57.011Z,41.40
2023-04-08T19:04:26.369Z,40.70
2023-04-08T19:06:54.185Z,40.00
2023-04-08T19:09:21.886Z,38.23
2023-04-08T19:11:49.600Z,48.50
2023-04-08T19:14:17.643Z,47.67
2023-04-08T19:16:46.022Z,45.83
2023-04-08T19:19:13.734Z,45.43
2023-04-08T19:21:42.840Z,44.17
2023-04-08T19:24:10.566Z,46.40
2023-04-08T19:26:38.327Z,45.20
2023-04-08T19:29:06.088Z,42.17
2023-04-08T19:31:33.764Z,45.17
2023-04-08T19:34:01.456Z,45.63
2023-04-08T19:36:29.231Z,38.20
2023-04-08T19:38:58.282Z,36.93
2023-04-08T19:41:26.242Z,34.57
2023-04-08T19:43:54.223Z,35.13
2023-04-08T19:46:22.098Z,34.67
2023-04-08T19:48:49.820Z,34.37
2023-04-08T19:51:20.269Z,40.83
2023-04-08T19:53:48.024Z,41.63
2023-04-08T19:56:17.237Z,37.83
2023-04-08T19:58:44.920Z,39.83
2023-04-08T20:01:14.145Z,36.53
2023-04-08T20:03:42.116Z,35.77
2023-04-08T20:06:10.029Z,37.37
2023-04-08T20:08:37.714Z,36.53
2023-04-08T20:11:05.375Z,38.40
2023-04-08T20:13:34.440Z,35.53
2023-04-08T20:16:02.695Z,38.43
2023-04-08T20:18:30.523Z,38.27
2023-04-08T20:20:59.550Z,40.07
2023-04-08T20:23:28.516Z,40.17
2023-04-08T20:25:56.763Z,40.60
2023-04-08T20:28:25.643Z,40.33
2023-04-08T20:30:54.693Z,41.93
2023-04-08T20:33:22.423Z,44.33
2023-04-08T20:35:53.087Z,41.70
2023-04-08T20:38:20.840Z,42.33
2023-04-08T20:40:48.853Z,45.67
2023-04-08T20:43:16.798Z,43.63
2023-04-08T20:45:44.466Z,44.40
2023-04-08T20:48:13.537Z,46.13
2023-04-08T20:50:41.484Z,44.30
2023-04-08T20:53:10.255Z,49.43
2023-04-08T20:55:37.987Z,47.17
2023-04-08T20:58:07.508Z,46.77
2023-04-08T21:00:35.357Z,40.70
2023-04-08T21:03:03.321Z,41.43
2023-04-08T21:05:32.565Z,40.47
2023-04-08T21:08:00.268Z,41.57
2023-04-08T21:10:28.099Z,40.60
2023-04-08T21:12:55.798Z,42.17
2023-04-08T21:15:23.493Z,39.57
2023-04-08T21:17:51.192Z,41.70
2023-04-08T21:20:19.150Z,42.57
2023-04-08T21:22:48.236Z,39.73
2023-04-08T21:25:16.028Z,41.17
2023-04-08T21:27:43.766Z,40.30
2023-04-08T21:30:12.068Z,37.97
2023-04-08T21:32:39.922Z,39.43
2023-04-08T21:35:08.127Z,38.23
2023-04-08T21:37:35.837Z,38.33
2023-04-08T21:40:05.203Z,37.10
2023-04-08T21:42:32.991Z,39.07
2023-04-08T21:45:00.835Z,36.77
2023-04-08T21:47:28.615Z,36.93
2023-04-08T21:49:56.853Z,35.13
2023-04-08T21:52:26.439Z,33.80
2023-04-08T21:54:54.219Z,36.60
2023-04-08T21:57:23.306Z,34.77
2023-04-08T21:59:51.012Z,35.60
2023-04-08T22:02:18.843Z,35.13
2023-04-08T22:04:46.601Z,32.97
2023-04-08T22:07:14.426Z,33.50
2023-04-08T22:09:42.147Z,33.27
2023-04-08T22:12:10.710Z,33.23
2023-04-08T22:14:39.858Z,31.83
2023-04-08T22:17:07.562Z,32.03
2023-04-08T22:19:35.571Z,31.83
2023-04-08T22:22:03.243Z,29.87
2023-04-08T22:24:30.921Z,31.37
2023-04-08T22:26:58.768Z,32.30
2023-04-08T22:29:26.476Z,32.40
2023-04-08T22:31:55.567Z,33.20
2023-04-08T22:34:23.311Z,35.13
2023-04-08T22:36:51.031Z,33.03
2023-04-08T22:39:18.734Z,31.90
2023-04-08T22:41:46.822Z,31.40
2023-04-08T22:44:14.599Z,32.17
2023-04-08T22:46:42.348Z,33.87
2023-04-08T22:49:11.459Z,33.70
2023-04-08T22:51:39.378Z,30.90
2023-04-08T22:54:07.148Z,32.83
2023-04-08T22:56:34.879Z,32.27
2023-04-08T22:59:02.639Z,32.30
2023-04-08T23:01:30.521Z,32.57
2023-04-08T23:03:58.275Z,30.00
2023-04-08T23:06:28.901Z,30.37
2023-04-08T23:08:56.543Z,31.60
2023-04-08T23:11:24.260Z,29.93
2023-04-08T23:13:51.932Z,28.13
2023-04-08T23:16:19.717Z,29.03
2023-04-08T23:18:47.512Z,27.47
2023-04-08T23:21:15.503Z,27.70
2023-04-08T23:23:44.585Z,29.47
2023-04-08T23:26:17.851Z,27.60
2023-04-08T23:28:45.574Z,28.60
2023-04-08T23:31:13.399Z,25.30
2023-04-08T23:33:41.169Z,28.63
2023-04-08T23:36:09.249Z,29.00
2023-04-08T23:38:37.974Z,29.20
2023-04-08T23:41:08.534Z,26.27
2023-04-08T23:43:36.403Z,29.67
2023-04-08T23:46:04.225Z,28.33
2023-04-08T23:48:31.928Z,27.27
2023-04-08T23:50:59.717Z,27.90
2023-04-08T23:53:27.399Z,28.80
2023-04-08T23:55:55.152Z,29.03
2023-04-08T23:58:24.259Z,30.60
